createdAt,value
2019-05-18T00:02:17.875Z,65.09
2019-05-18T00:04:48.773Z,65.12
2019-05-18T00:07:22.518Z,65.17
2019-05-18T00:09:53.251Z,65.20
2019-05-18T00:12:24.198Z,65.28
2019-05-18T00:14:55.534Z,65.24
2019-05-18T00:17:28.317Z,65.17
2019-05-18T00:19:59.962Z,65.18
2019-05-18T00:22:30.871Z,64.70
2019-05-18T00:25:02.668Z,64.89
2019-05-18T00:27:35.036Z,64.98
2019-05-18T00:30:08.517Z,64.48
2019-05-18T00:32:40.522Z,64.73
2019-05-18T00:35:11.322Z,64.76
2019-05-18T00:37:42.581Z,64.50
2019-05-18T00:40:13.673Z,64.70
2019-05-18T00:42:44.037Z,64.33
2019-05-18T00:45:15.013Z,64.55
2019-05-18T00:47:48.060Z,64.65
2019-05-18T00:50:19.339Z,64.64
2019-05-18T00:52:50.962Z,64.65
2019-05-18T00:55:23.539Z,64.71
2019-05-18T00:57:54.370Z,64.97
2019-05-18T01:00:25.273Z,65.23
2019-05-18T01:02:56.041Z,65.44
2019-05-18T01:05:26.976Z,65.55
2019-05-18T01:07:57.913Z,65.46
2019-05-18T01:10:28.764Z,65.35
2019-05-18T01:12:59.790Z,65.30
2019-05-18T01:15:30.623Z,65.47
2019-05-18T01:18:02.349Z,65.50
2019-05-18T01:20:33.376Z,65.82
2019-05-18T01:23:04.255Z,65.64
2019-05-18T01:25:34.989Z,65.68
2019-05-18T01:28:06.029Z,65.58
2019-05-18T01:30:37.370Z,65.35
2019-05-18T01:33:08.640Z,65.40
2019-05-18T01:35:39.657Z,65.42
2019-05-18T01:38:10.904Z,65.39
2019-05-18T01:40:42.467Z,65.42
2019-05-18T01:43:13.509Z,65.42
2019-05-18T01:45:44.842Z,65.24
2019-05-18T01:48:15.675Z,65.58
2019-05-18T01:50:46.686Z,65.67
2019-05-18T01:53:17.755Z,65.92
2019-05-18T01:55:49.502Z,66.02
2019-05-18T01:58:20.041Z,66.08
2019-05-18T02:00:51.206Z,66.55
2019-05-18T02:03:22.030Z,66.30
2019-05-18T02:05:52.752Z,66.38
2019-05-18T02:08:23.601Z,66.50
2019-05-18T02:10:54.416Z,66.53
2019-05-18T02:13:25.289Z,66.55
2019-05-18T02:15:56.104Z,66.50
2019-05-18T02:18:29.341Z,66.57
2019-05-18T02:20:59.399Z,66.10
2019-05-18T02:23:30.748Z,65.66
2019-05-18T02:26:01.690Z,65.97
2019-05-18T02:28:32.518Z,66.00
2019-05-18T02:31:03.456Z,66.04
2019-05-18T02:33:33.880Z,66.11
2019-05-18T02:36:07.489Z,65.98
2019-05-18T02:38:38.298Z,65.65
2019-05-18T02:41:10.479Z,65.40
2019-05-18T02:43:41.558Z,65.21
2019-05-18T02:46:12.565Z,64.69
2019-05-18T02:48:49.512Z,64.49
2019-05-18T02:51:15.867Z,64.24
2019-05-18T02:53:46.816Z,63.95
2019-05-18T02:56:19.282Z,63.26
2019-05-18T02:58:49.927Z,63.04
2019-05-18T03:01:20.536Z,62.94
2019-05-18T03:03:53.125Z,62.89
2019-05-18T03:06:24.061Z,62.59
2019-05-18T03:08:54.789Z,62.53
2019-05-18T03:11:25.731Z,62.61
2019-05-18T03:13:56.672Z,62.22
2019-05-18T03:16:27.804Z,62.57
2019-05-18T03:19:08.157Z,62.24
2019-05-18T03:21:31.212Z,62.30
2019-05-18T03:24:03.998Z,62.47
2019-05-18T03:26:34.726Z,62.22
2019-05-18T03:29:05.418Z,62.57
2019-05-18T03:31:36.426Z,62.65
2019-05-18T03:34:08.977Z,62.66
2019-05-18T03:36:39.541Z,62.95
2019-05-18T03:39:10.436Z,62.93
2019-05-18T03:41:41.376Z,62.70
2019-05-18T03:44:13.422Z,62.74
2019-05-18T03:46:44.335Z,62.64
2019-05-18T03:49:26.395Z,62.60
2019-05-18T03:51:47.893Z,62.41
2019-05-18T03:54:19.949Z,62.51
2019-05-18T03:56:50.974Z,62.59
2019-05-18T03:59:21.785Z,62.24
2019-05-18T04:01:52.638Z,62.22
2019-05-18T04:04:23.853Z,62.26
2019-05-18T04:06:54.428Z,61.95
2019-05-18T04:09:27.211Z,62.10
2019-05-18T04:11:59.590Z,62.25
2019-05-18T04:14:30.623Z,61.80
2019-05-18T04:17:01.361Z,61.61
2019-05-18T04:19:45.810Z,61.15
2019-05-18T04:22:04.470Z,60.85
2019-05-18T04:24:35.413Z,60.84
2019-05-18T04:27:06.335Z,60.80
2019-05-18T04:29:37.072Z,60.48
2019-05-18T04:32:07.898Z,60.25
2019-05-18T04:34:39.758Z,60.18
2019-05-18T04:37:10.452Z,59.61
2019-05-18T04:39:41.531Z,59.34
2019-05-18T04:42:12.467Z,59.20
2019-05-18T04:44:43.507Z,59.19
2019-05-18T04:47:14.648Z,59.52
2019-05-18T04:50:03.535Z,58.92
2019-05-18T04:52:18.056Z,58.76
2019-05-18T04:54:49.126Z,58.74
2019-05-18T04:57:19.945Z,58.51
2019-05-18T04:59:51.075Z,58.55
2019-05-18T05:02:22.018Z,58.14
2019-05-18T05:04:56.395Z,58.04
2019-05-18T05:07:26.448Z,57.68
2019-05-18T05:09:57.386Z,57.38
2019-05-18T05:12:28.840Z,57.03
2019-05-18T05:14:59.721Z,56.49
2019-05-18T05:17:30.710Z,56.78
2019-05-18T05:20:01.449Z,56.52
2019-05-18T05:22:34.158Z,56.65
2019-05-18T05:25:05.413Z,56.39
2019-05-18T05:27:36.103Z,56.52
2019-05-18T05:30:08.069Z,55.94
2019-05-18T05:32:38.799Z,55.50
2019-05-18T05:35:09.727Z,55.13
2019-05-18T05:37:40.293Z,55.21
2019-05-18T05:40:11.316Z,55.16
2019-05-18T05:42:41.824Z,54.79
2019-05-18T05:45:13.778Z,54.25
2019-05-18T05:47:44.313Z,54.13
2019-05-18T05:50:15.249Z,53.89
2019-05-18T05:52:47.006Z,53.39
2019-05-18T05:55:18.563Z,53.99
2019-05-18T05:57:50.726Z,53.85
2019-05-18T06:00:21.688Z,53.33
2019-05-18T06:02:52.499Z,53.11
2019-05-18T06:05:23.434Z,53.89
2019-05-18T06:07:54.393Z,53.95
2019-05-18T06:10:25.517Z,53.19
2019-05-18T06:12:56.299Z,53.44
2019-05-18T06:15:27.403Z,52.97
2019-05-18T06:17:58.346Z,53.04
2019-05-18T06:20:29.261Z,53.03
2019-05-18T06:23:00.736Z,52.75
2019-05-18T06:25:34.394Z,52.38
2019-05-18T06:28:05.078Z,51.67
2019-05-18T06:30:35.994Z,51.78
2019-05-18T06:33:06.840Z,51.33
2019-05-18T06:35:37.675Z,50.61
2019-05-18T06:38:08.592Z,50.94
2019-05-18T06:40:39.539Z,50.71
2019-05-18T06:43:10.422Z,50.43
2019-05-18T06:45:42.218Z,50.42
2019-05-18T06:48:13.168Z,49.85
2019-05-18T06:50:46.288Z,49.51
2019-05-18T06:53:17.389Z,49.28
2019-05-18T06:55:48.118Z,49.02
2019-05-18T06:58:20.494Z,49.10
2019-05-18T07:00:51.052Z,48.22
2019-05-18T07:03:22.489Z,48.62
2019-05-18T07:05:54.735Z,48.47
2019-05-18T07:08:25.709Z,48.29
2019-05-18T07:10:56.617Z,47.82
2019-05-18T07:13:27.464Z,47.89
2019-05-18T07:15:58.383Z,47.86
2019-05-18T07:18:29.429Z,47.70
2019-05-18T07:21:00.584Z,47.85
2019-05-18T07:23:31.503Z,47.65
2019-05-18T07:26:02.383Z,47.48
2019-05-18T07:28:33.275Z,47.27
2019-05-18T07:31:04.213Z,46.87
2019-05-18T07:33:35.259Z,46.97
2019-05-18T07:36:06.093Z,46.88
2019-05-18T07:38:38.988Z,46.42
2019-05-18T07:41:09.553Z,45.84
2019-05-18T07:43:40.551Z,45.68
2019-05-18T07:46:11.623Z,45.78
2019-05-18T07:48:42.207Z,45.46
2019-05-18T07:51:13.148Z,45.40
2019-05-18T07:53:44.184Z,45.18
2019-05-18T07:56:17.168Z,45.11
2019-05-18T07:58:49.131Z,45.13
2019-05-18T08:01:20.065Z,44.69
2019-05-18T08:03:51.413Z,43.87
2019-05-18T08:06:22.684Z,44.32
2019-05-18T08:08:53.259Z,43.90
2019-05-18T08:11:23.818Z,43.43
2019-05-18T08:13:54.754Z,43.43
2019-05-18T08:16:26.000Z,42.57
2019-05-18T08:18:58.187Z,43.47
2019-05-18T08:21:29.205Z,42.77
2019-05-18T08:24:00.249Z,43.11
2019-05-18T08:26:31.383Z,42.85
2019-05-18T08:29:02.052Z,42.45
2019-05-18T08:31:34.378Z,42.57
2019-05-18T08:34:05.453Z,41.41
2019-05-18T08:36:36.371Z,41.11
2019-05-18T08:39:07.320Z,41.00
2019-05-18T08:41:40.055Z,40.47
2019-05-18T08:44:11.231Z,40.13
2019-05-18T08:46:42.128Z,40.16
2019-05-18T08:49:13.336Z,39.46
2019-05-18T08:51:44.244Z,38.72
2019-05-18T08:54:15.076Z,38.64
2019-05-18T08:56:45.493Z,38.04
2019-05-18T08:59:16.236Z,37.91
2019-05-18T09:01:47.272Z,37.42
2019-05-18T09:04:18.335Z,37.04
2019-05-18T09:06:49.351Z,36.80
2019-05-18T09:09:21.164Z,36.81
2019-05-18T09:11:52.361Z,36.43
2019-05-18T09:14:23.294Z,36.56
2019-05-18T09:16:54.433Z,37.05
2019-05-18T09:19:25.369Z,36.63
2019-05-18T09:21:56.415Z,35.92
2019-05-18T09:24:27.128Z,35.06
2019-05-18T09:26:58.085Z,35.15
2019-05-18T09:29:29.017Z,34.99
2019-05-18T09:32:00.782Z,34.57
2019-05-18T09:34:31.815Z,33.85
2019-05-18T09:37:03.985Z,34.22
2019-05-18T09:39:37.566Z,33.44
2019-05-18T09:42:08.319Z,33.05
2019-05-18T09:44:39.150Z,32.34
2019-05-18T09:47:11.987Z,31.95
2019-05-18T09:49:45.324Z,31.62
2019-05-18T09:52:16.369Z,31.80
2019-05-18T09:54:47.424Z,31.29
2019-05-18T09:57:18.239Z,31.38
2019-05-18T09:59:49.175Z,30.09
2019-05-18T10:02:20.122Z,30.59
2019-05-18T10:04:51.156Z,30.93
2019-05-18T10:07:21.896Z,30.81
2019-05-18T10:09:52.962Z,31.37
2019-05-18T10:12:24.821Z,30.88
2019-05-18T10:14:56.235Z,31.55
2019-05-18T10:17:27.274Z,31.06
2019-05-18T10:19:59.851Z,30.53
2019-05-18T10:22:30.788Z,31.52
2019-05-18T10:25:01.938Z,31.33
2019-05-18T10:27:32.869Z,30.46
2019-05-18T10:30:08.266Z,30.82
2019-05-18T10:32:39.144Z,29.38
2019-05-18T10:35:10.729Z,28.65
2019-05-18T10:37:41.325Z,27.63
2019-05-18T10:40:12.522Z,28.11
2019-05-18T10:42:43.206Z,28.50
2019-05-18T10:45:14.859Z,27.97
2019-05-18T10:47:45.482Z,29.70
2019-05-18T10:50:16.123Z,30.24
2019-05-18T10:52:46.654Z,29.46
2019-05-18T10:55:18.642Z,28.84
2019-05-18T10:57:49.756Z,28.46
2019-05-18T11:00:22.140Z,27.48
2019-05-18T11:02:53.158Z,26.67
2019-05-18T11:05:25.531Z,26.48
2019-05-18T11:07:56.044Z,25.36
2019-05-18T11:10:27.109Z,25.56
2019-05-18T11:12:58.137Z,25.51
2019-05-18T11:15:28.988Z,27.05
2019-05-18T11:18:00.933Z,29.22
2019-05-18T11:20:32.071Z,27.10
2019-05-18T11:23:03.125Z,26.59
2019-05-18T11:25:35.919Z,25.56
2019-05-18T11:28:07.042Z,23.84
2019-05-18T11:30:38.487Z,23.28
2019-05-18T11:33:09.176Z,22.88
2019-05-18T11:35:41.896Z,24.13
2019-05-18T11:38:12.540Z,22.87
2019-05-18T11:40:43.675Z,22.14
2019-05-18T11:43:14.650Z,21.88
2019-05-18T11:45:46.470Z,21.79
2019-05-18T11:48:17.311Z,21.55
2019-05-18T11:50:48.073Z,21.34
2019-05-18T11:53:19.080Z,21.77
2019-05-18T11:55:51.051Z,22.23
2019-05-18T11:58:21.976Z,22.88
2019-05-18T12:00:52.922Z,25.25
2019-05-18T12:03:23.956Z,25.84
2019-05-18T12:05:57.500Z,23.79
2019-05-18T12:08:28.693Z,23.25
2019-05-18T12:11:03.768Z,22.12
2019-05-18T12:13:37.326Z,22.32
2019-05-18T12:16:08.276Z,22.21
2019-05-18T12:18:39.306Z,21.97
2019-05-18T12:21:10.095Z,21.42
2019-05-18T12:23:41.083Z,21.90
2019-05-18T12:26:12.116Z,22.39
2019-05-18T12:28:43.161Z,23.20
2019-05-18T12:31:14.404Z,23.23
2019-05-18T12:33:45.236Z,23.11
2019-05-18T12:36:16.375Z,23.56
2019-05-18T12:38:47.852Z,24.35
2019-05-18T12:41:20.766Z,24.12
2019-05-18T12:43:51.610Z,23.16
2019-05-18T12:46:23.911Z,23.76
2019-05-18T12:48:54.645Z,25.84
2019-05-18T12:51:25.716Z,25.62
2019-05-18T12:53:56.625Z,25.07
2019-05-18T12:56:27.566Z,27.00
2019-05-18T12:58:58.401Z,27.70
2019-05-18T13:01:29.541Z,27.63
2019-05-18T13:04:00.588Z,27.57
2019-05-18T13:06:34.661Z,27.04
2019-05-18T13:09:07.447Z,26.95
2019-05-18T13:11:38.108Z,26.49
2019-05-18T13:14:11.182Z,28.10
2019-05-18T13:16:41.267Z,29.20
2019-05-18T13:19:12.756Z,29.47
2019-05-18T13:21:43.695Z,26.19
2019-05-18T13:24:16.182Z,26.90
2019-05-18T13:26:47.219Z,24.58
2019-05-18T13:29:18.454Z,23.00
2019-05-18T13:31:49.189Z,22.08
2019-05-18T13:34:19.970Z,21.42
2019-05-18T13:36:51.058Z,22.10
2019-05-18T13:39:23.430Z,20.59
2019-05-18T13:41:56.016Z,20.59
2019-05-18T13:44:26.987Z,21.13
2019-05-18T13:46:58.334Z,21.38
2019-05-18T13:49:29.329Z,22.06
2019-05-18T13:52:00.274Z,21.90
2019-05-18T13:54:31.924Z,21.92
2019-05-18T13:57:02.757Z,22.37
2019-05-18T13:59:33.902Z,21.65
2019-05-18T14:02:05.044Z,22.54
2019-05-18T14:04:35.583Z,22.40
2019-05-18T14:07:06.409Z,22.45
2019-05-18T14:09:37.343Z,21.96
2019-05-18T14:12:08.386Z,21.86
2019-05-18T14:14:39.221Z,23.67
2019-05-18T14:17:09.959Z,23.86
2019-05-18T14:19:41.184Z,23.76
2019-05-18T14:22:12.243Z,23.28
2019-05-18T14:24:43.242Z,23.10
2019-05-18T14:27:15.652Z,23.31
2019-05-18T14:29:46.486Z,23.74
2019-05-18T14:32:17.827Z,23.10
2019-05-18T14:34:48.795Z,22.43
2019-05-18T14:37:19.601Z,21.88
2019-05-18T14:39:50.546Z,22.41
2019-05-18T14:42:21.481Z,23.79
2019-05-18T14:44:52.571Z,23.88
2019-05-18T14:47:26.882Z,24.17
2019-05-18T14:49:56.441Z,23.15
2019-05-18T14:52:27.256Z,23.42
2019-05-18T14:54:58.625Z,23.92
2019-05-18T14:57:30.177Z,24.23
2019-05-18T15:00:02.419Z,23.56
2019-05-18T15:02:33.443Z,24.33
2019-05-18T15:05:08.411Z,27.15
2019-05-18T15:07:39.146Z,29.17
2019-05-18T15:10:10.593Z,30.40
2019-05-18T15:12:42.149Z,28.09
2019-05-18T15:15:14.724Z,26.87
2019-05-18T15:17:45.581Z,26.01
2019-05-18T15:20:20.048Z,27.19
2019-05-18T15:22:50.907Z,26.93
2019-05-18T15:25:21.949Z,27.27
2019-05-18T15:27:53.817Z,27.32
2019-05-18T15:30:26.177Z,27.19
2019-05-18T15:32:56.844Z,28.43
2019-05-18T15:35:27.953Z,29.90
2019-05-18T15:37:58.890Z,29.51
2019-05-18T15:40:29.847Z,28.84
2019-05-18T15:43:00.872Z,28.59
2019-05-18T15:45:31.708Z,28.40
2019-05-18T15:48:02.952Z,28.29
2019-05-18T15:50:33.770Z,29.23
2019-05-18T15:53:06.571Z,30.14
2019-05-18T15:55:37.408Z,30.43
2019-05-18T15:58:08.133Z,31.85
2019-05-18T16:00:39.177Z,33.44
2019-05-18T16:03:09.910Z,34.55
2019-05-18T16:05:40.946Z,34.63
2019-05-18T16:08:11.704Z,34.46
2019-05-18T16:10:42.922Z,34.76
2019-05-18T16:13:14.168Z,35.02
2019-05-18T16:15:45.413Z,35.48
2019-05-18T16:18:16.351Z,36.03
2019-05-18T16:20:47.314Z,36.79
2019-05-18T16:23:18.532Z,37.23
2019-05-18T16:25:50.291Z,37.37
2019-05-18T16:28:22.663Z,37.92
2019-05-18T16:30:53.800Z,38.26
2019-05-18T16:33:24.879Z,38.19
2019-05-18T16:35:55.688Z,38.60
2019-05-18T16:38:26.715Z,39.10
2019-05-18T16:40:59.086Z,39.73
2019-05-18T16:43:29.956Z,40.15
2019-05-18T16:46:00.871Z,40.54
2019-05-18T16:48:32.017Z,40.59
2019-05-18T16:51:02.853Z,41.34
2019-05-18T16:53:34.183Z,41.39
2019-05-18T16:56:05.330Z,41.89
2019-05-18T16:58:35.789Z,42.03
2019-05-18T17:01:07.306Z,42.23
2019-05-18T17:03:38.272Z,42.48
2019-05-18T17:06:09.286Z,42.77
2019-05-18T17:08:39.920Z,42.83
2019-05-18T17:11:10.769Z,43.42
2019-05-18T17:13:41.788Z,43.46
2019-05-18T17:16:13.339Z,43.65
2019-05-18T17:18:44.277Z,43.46
2019-05-18T17:21:16.542Z,43.59
2019-05-18T17:23:47.169Z,44.07
2019-05-18T17:26:18.010Z,44.13
2019-05-18T17:28:48.847Z,44.39
2019-05-18T17:31:20.192Z,44.53
2019-05-18T17:33:51.440Z,44.90
2019-05-18T17:36:22.341Z,45.36
2019-05-18T17:38:53.443Z,45.28
2019-05-18T17:41:24.763Z,45.45
2019-05-18T17:43:55.392Z,45.47
2019-05-18T17:46:25.954Z,45.75
2019-05-18T17:48:56.956Z,45.90
2019-05-18T17:51:27.894Z,45.74
2019-05-18T17:53:59.446Z,45.63
2019-05-18T17:56:30.870Z,45.76
2019-05-18T17:59:01.842Z,45.99
2019-05-18T18:01:32.671Z,45.99
2019-05-18T18:04:03.824Z,46.15
2019-05-18T18:06:34.858Z,46.48
2019-05-18T18:09:08.131Z,46.56
2019-05-18T18:11:38.939Z,46.27
2019-05-18T18:14:12.280Z,46.65
2019-05-18T18:16:43.192Z,47.04
2019-05-18T18:19:14.556Z,47.05
2019-05-18T18:21:45.257Z,47.51
2019-05-18T18:24:16.152Z,48.27
2019-05-18T18:26:47.025Z,48.73
2019-05-18T18:29:18.128Z,48.85
2019-05-18T18:31:49.135Z,49.13
2019-05-18T18:34:20.487Z,49.65
2019-05-18T18:36:51.341Z,49.66
2019-05-18T18:39:22.566Z,49.87
2019-05-18T18:41:53.508Z,49.83
2019-05-18T18:44:24.950Z,50.21
2019-05-18T18:46:56.162Z,50.57
2019-05-18T18:49:27.441Z,50.90
2019-05-18T18:51:58.380Z,50.86
2019-05-18T18:54:29.324Z,50.94
2019-05-18T18:57:00.151Z,51.35
2019-05-18T18:59:31.806Z,52.01
2019-05-18T19:02:02.744Z,52.20
2019-05-18T19:04:33.682Z,52.77
2019-05-18T19:07:04.722Z,53.19
2019-05-18T19:09:35.672Z,53.38
2019-05-18T19:12:06.631Z,53.60
2019-05-18T19:14:37.535Z,53.63
2019-05-18T19:17:08.677Z,53.68
2019-05-18T19:19:40.327Z,53.84
2019-05-18T19:22:11.367Z,53.62
2019-05-18T19:24:42.410Z,53.72
2019-05-18T19:27:14.299Z,54.01
2019-05-18T19:29:45.217Z,54.04
2019-05-18T19:32:16.265Z,54.29
2019-05-18T19:34:47.208Z,54.29
2019-05-18T19:37:20.439Z,54.40
2019-05-18T19:39:51.415Z,54.48
2019-05-18T19:42:22.347Z,54.32
2019-05-18T19:44:53.196Z,54.50
2019-05-18T19:47:23.915Z,54.51
2019-05-18T19:49:55.060Z,54.51
2019-05-18T19:52:25.994Z,54.68
2019-05-18T19:54:57.064Z,55.02
2019-05-18T19:57:27.689Z,55.23
2019-05-18T19:59:58.836Z,55.65
2019-05-18T20:02:30.289Z,55.74
2019-05-18T20:05:07.332Z,55.30
2019-05-18T20:07:33.479Z,55.42
2019-05-18T20:10:08.913Z,55.61
2019-05-18T20:12:39.543Z,55.68
2019-05-18T20:15:12.830Z,55.67
2019-05-18T20:17:43.762Z,55.92
2019-05-18T20:20:15.668Z,56.02
2019-05-18T20:22:46.252Z,55.84
2019-05-18T20:25:17.047Z,56.01
2019-05-18T20:27:48.335Z,56.03
2019-05-18T20:30:20.406Z,56.13
2019-05-18T20:32:51.344Z,56.03
2019-05-18T20:35:25.641Z,56.22
2019-05-18T20:37:55.155Z,55.88
2019-05-18T20:40:25.889Z,56.12
2019-05-18T20:42:56.679Z,56.18
2019-05-18T20:45:27.569Z,56.14
2019-05-18T20:47:58.594Z,56.58
2019-05-18T20:50:29.649Z,56.75
2019-05-18T20:53:00.787Z,57.29
2019-05-18T20:55:31.633Z,57.39
2019-05-18T20:58:02.682Z,57.18
2019-05-18T21:00:33.533Z,57.50
2019-05-18T21:03:04.633Z,57.24
2019-05-18T21:05:38.138Z,57.41
2019-05-18T21:08:09.502Z,57.27
2019-05-18T21:10:40.443Z,56.97
2019-05-18T21:13:11.450Z,57.37
2019-05-18T21:15:42.072Z,57.41
2019-05-18T21:18:13.033Z,57.60
2019-05-18T21:20:44.063Z,57.89
2019-05-18T21:23:18.459Z,57.79
2019-05-18T21:25:49.244Z,57.82
2019-05-18T21:28:20.967Z,58.07
2019-05-18T21:30:51.702Z,58.51
2019-05-18T21:33:22.743Z,58.51
2019-05-18T21:35:53.437Z,58.68
2019-05-18T21:38:24.512Z,58.55
2019-05-18T21:40:55.759Z,58.60
2019-05-18T21:43:27.310Z,58.45
2019-05-18T21:45:58.351Z,58.51
2019-05-18T21:48:29.285Z,58.47
2019-05-18T21:51:01.043Z,58.66
2019-05-18T21:53:32.038Z,58.45
2019-05-18T21:56:04.059Z,58.39
2019-05-18T21:58:35.028Z,58.83
2019-05-18T22:01:06.797Z,59.01
2019-05-18T22:03:37.778Z,59.01
2019-05-18T22:06:09.146Z,58.77
2019-05-18T22:08:39.972Z,59.05
2019-05-18T22:11:10.794Z,58.89
2019-05-18T22:13:41.840Z,59.03
2019-05-18T22:16:14.316Z,59.08
2019-05-18T22:18:45.151Z,59.21
2019-05-18T22:21:15.981Z,59.16
2019-05-18T22:23:46.807Z,58.66
2019-05-18T22:26:17.750Z,58.80
2019-05-18T22:28:48.688Z,58.87
2019-05-18T22:31:21.370Z,59.05
2019-05-18T22:33:52.457Z,59.19
2019-05-18T22:36:23.648Z,59.16
2019-05-18T22:38:55.913Z,58.92
2019-05-18T22:41:26.526Z,59.04
2019-05-18T22:43:57.585Z,58.72
2019-05-18T22:46:29.950Z,58.85
2019-05-18T22:49:00.791Z,58.90
2019-05-18T22:51:32.551Z,58.73
2019-05-18T22:54:03.594Z,58.88
2019-05-18T22:56:34.120Z,58.69
2019-05-18T22:59:05.770Z,58.90
2019-05-18T23:01:37.511Z,59.08
2019-05-18T23:04:08.162Z,59.53
2019-05-18T23:06:39.198Z,59.60
2019-05-18T23:09:10.237Z,59.89
2019-05-18T23:11:41.075Z,60.42
2019-05-18T23:14:12.108Z,61.20
2019-05-18T23:16:43.151Z,61.46
2019-05-18T23:19:14.393Z,61.54
2019-05-18T23:21:47.072Z,61.92
2019-05-18T23:24:17.710Z,62.09
2019-05-18T23:26:48.610Z,62.11
2019-05-18T23:29:19.476Z,61.97
2019-05-18T23:31:50.511Z,61.65
2019-05-18T23:34:21.350Z,61.06
2019-05-18T23:36:53.211Z,60.57
2019-05-18T23:39:23.739Z,60.77
2019-05-18T23:41:55.798Z,60.57
2019-05-18T23:44:26.447Z,59.56
2019-05-18T23:46:58.843Z,59.17
2019-05-18T23:49:29.838Z,58.87
2019-05-18T23:52:03.133Z,58.59
2019-05-18T23:54:33.993Z,58.76
2019-05-18T23:57:05.072Z,58.89
2019-05-18T23:59:36.967Z,58.60
